Slave Lake, Slave Lake Airport (CYZH)

NameSlave Lake Airport
CitySlave Lake
CountryCanada
ICAOCYZH
IATAYZH
Altitude583 m
CoordinatesGoogle Map
Live Air TrafficLiveATC.net
METARCYZH 250000Z AUTO 31007KT 280V350 9SM FEW055 BKN160 19/11 A2968 RMK SLP060 DENSITY ALT 3100FT
2019-08-25 00:00:00 Wind: West-Northwest (310°) 3.6 m/s - Visibility: 14484.06 m - Temperature: 19 °C - Dew point: 11 °C - Humidity: 59.9% - Pressure: 1005.08 hPa
Statistics

The table below shows the detailed information of all flights to/from Slave Lake, Slave Lake Airport (CYZH).